Darstellungsparameter: Aktuell verwendete Einstellungen:
Skalierung der Graphiken ... ?
xyx+y,   Skalierungsfaktor:      Skalierung: Modus: x, Faktor: 1
Darstellungszeitraum ... ?
Vom - - bis: - -   Zeitraum: 07.08.2018 - 07.08.2018
Min/Max/Avg-Anzeige ... ?
Zeige MMA aktuell
Zeige MMA Monat
Zeige MMA alles
Zeige --A aktuell
Zeige --A Monat
Zeige --A alles
Keine MMA-Anzeige
MMA:
Keine MMA-Graphiken
MMA-Basis: 07.08.2018 - 07.08.2018
Quicknavigation für Darstellung... ?
Tage:      1T, 2T, 3T, 5T -1T -2T -3T -5T +1T +2T +3T +5T
Wochen: 1W, 2W, 3W -1W -2W -3W +1W +2W +3W
Monate: 1M, 3M, 6M -1M -3M -6M +1M +3M +6M
Jahre:    1J, 3J, 5J, 10J -1J -3J -5J -10J +1J +3J +5J +10J
Nutze für die Darstellung ... ?
Originaldaten oder Mittelwerte auf ...
Stundenbasis Tagesbasis Wochenbasis
Monatsbasis Jahresbasis      Datenbasis: Original-Daten
Darstellen als:
Statistik (Auto) Statistik J:M      Darstellung:
Zur Graphik,    zurück zur Übersicht aller Sensoren.
 
Tabellarische Datenbersicht: ?
 
Sensor: Nr:Datum:Temp:Feuchte:Taupunkt:
Aussen-T/F 1 07-08-2018 00:00:00 22.4 C 64 % 15.26 C
2 07-08-2018 00:05:00 22.2 C 65 % 15.31 C
3 07-08-2018 00:10:00 22 C 65 % 15.12 C
4 07-08-2018 00:15:00 21.8 C 64 % 14.69 C
5 07-08-2018 00:20:00 21.7 C 65 % 14.84 C
6 07-08-2018 00:25:00 21.6 C 64 % 14.5 C
7 07-08-2018 00:30:00 21.6 C 64 % 14.5 C
8 07-08-2018 00:35:00 21.5 C 65 % 14.65 C
9 07-08-2018 00:40:00 21.5 C 64 % 14.41 C
10 07-08-2018 00:45:00 21.5 C 65 % 14.65 C
11 07-08-2018 00:50:00 21.5 C 65 % 14.65 C
12 07-08-2018 00:55:00 21.5 C 64 % 14.41 C
13 07-08-2018 01:00:00 21.5 C 65 % 14.65 C
14 07-08-2018 01:05:00 21.4 C 65 % 14.55 C
15 07-08-2018 01:10:00 21.4 C 65 % 14.55 C
16 07-08-2018 01:15:00 21.2 C 65 % 14.36 C
17 07-08-2018 01:20:00 21 C 66 % 14.41 C
18 07-08-2018 01:25:00 20.9 C 66 % 14.31 C
19 07-08-2018 01:30:00 20.7 C 67 % 14.36 C
20 07-08-2018 01:35:00 20.6 C 68 % 14.49 C
21 07-08-2018 01:40:00 20.3 C 67 % 13.97 C
22 07-08-2018 01:45:00 20.2 C 68 % 14.11 C
23 07-08-2018 01:50:00 20 C 69 % 14.14 C
24 07-08-2018 01:55:00 19.8 C 70 % 14.17 C
25 07-08-2018 02:00:00 19.7 C 70 % 14.08 C
Sensor: Nr:Datum:Temp:Feuchte:Taupunkt:
Aussen-T/F 26 07-08-2018 02:05:00 19.4 C 71 % 14.01 C
27 07-08-2018 02:10:00 19.3 C 71 % 13.91 C
28 07-08-2018 02:15:00 19.1 C 72 % 13.94 C
29 07-08-2018 02:20:00 19.1 C 72 % 13.94 C
30 07-08-2018 02:25:00 19 C 72 % 13.84 C
31 07-08-2018 02:30:00 19.1 C 72 % 13.94 C
32 07-08-2018 02:35:00 19.3 C 73 % 14.34 C
33 07-08-2018 02:40:00 19.5 C 74 % 14.74 C
34 07-08-2018 02:45:00 19.5 C 73 % 14.53 C
35 07-08-2018 02:50:00 19.4 C 72 % 14.22 C
36 07-08-2018 02:55:00 19.3 C 72 % 14.13 C
37 07-08-2018 03:00:00 19.1 C 73 % 14.15 C
38 07-08-2018 03:05:00 18.9 C 73 % 13.96 C
39 07-08-2018 03:10:00 18.8 C 73 % 13.86 C
40 07-08-2018 03:15:00 18.7 C 73 % 13.76 C
41 07-08-2018 03:20:00 18.6 C 74 % 13.88 C
42 07-08-2018 03:25:00 18.6 C 74 % 13.88 C
43 07-08-2018 03:30:00 18.6 C 74 % 13.88 C
44 07-08-2018 03:35:00 18.5 C 74 % 13.78 C
45 07-08-2018 03:40:00 18.3 C 74 % 13.59 C
46 07-08-2018 03:45:00 18.2 C 75 % 13.7 C
47 07-08-2018 03:50:00 18.1 C 75 % 13.6 C
48 07-08-2018 03:55:00 18.1 C 75 % 13.6 C
49 07-08-2018 04:00:00 17.9 C 76 % 13.61 C
50 07-08-2018 04:05:00 17.8 C 76 % 13.52 C
Sensor: Nr:Datum:Temp:Feuchte:Taupunkt:
Aussen-T/F 51 07-08-2018 04:10:00 17.8 C 76 % 13.52 C
52 07-08-2018 04:15:00 17.7 C 77 % 13.62 C
53 07-08-2018 04:20:00 17.6 C 77 % 13.52 C
54 07-08-2018 04:25:00 17.5 C 78 % 13.62 C
55 07-08-2018 04:30:00 17.4 C 78 % 13.53 C
56 07-08-2018 04:35:00 17.4 C 78 % 13.53 C
57 07-08-2018 04:40:00 17.3 C 78 % 13.43 C
58 07-08-2018 04:45:00 17.2 C 78 % 13.33 C
59 07-08-2018 04:50:00 17.2 C 79 % 13.53 C
60 07-08-2018 04:55:00 17.2 C 79 % 13.53 C
61 07-08-2018 05:00:00 17.2 C 80 % 13.72 C
62 07-08-2018 05:05:00 17.2 C 80 % 13.72 C
63 07-08-2018 05:10:00 17.2 C 80 % 13.72 C
64 07-08-2018 05:15:00 17.2 C 80 % 13.72 C
65 07-08-2018 05:20:00 17.2 C 79 % 13.53 C
66 07-08-2018 05:25:00 17.1 C 79 % 13.43 C
67 07-08-2018 05:30:00 16.9 C 79 % 13.24 C
68 07-08-2018 05:35:00 16.9 C 80 % 13.43 C
69 07-08-2018 05:40:00 16.8 C 80 % 13.33 C
70 07-08-2018 05:45:00 16.7 C 80 % 13.23 C
71 07-08-2018 05:50:00 16.7 C 81 % 13.43 C
72 07-08-2018 05:55:00 16.6 C 81 % 13.33 C
73 07-08-2018 06:00:00 16.5 C 81 % 13.23 C
74 07-08-2018 06:05:00 16.6 C 82 % 13.52 C
75 07-08-2018 06:10:00 16.6 C 82 % 13.52 C
Sensor: Nr:Datum:Temp:Feuchte:Taupunkt:
Aussen-T/F 76 07-08-2018 06:15:00 16.6 C 82 % 13.52 C
77 07-08-2018 06:20:00 16.6 C 82 % 13.52 C
78 07-08-2018 06:25:00 16.5 C 82 % 13.42 C
79 07-08-2018 06:30:00 16.6 C 82 % 13.52 C
80 07-08-2018 06:35:00 16.6 C 83 % 13.7 C
81 07-08-2018 06:40:00 16.7 C 83 % 13.8 C
82 07-08-2018 06:45:00 16.7 C 82 % 13.61 C
83 07-08-2018 06:50:00 16.8 C 82 % 13.71 C
84 07-08-2018 06:55:00 16.8 C 82 % 13.71 C
85 07-08-2018 07:00:00 16.9 C 82 % 13.81 C
86 07-08-2018 07:05:00 16.9 C 82 % 13.81 C
87 07-08-2018 07:10:00 16.9 C 83 % 14 C
88 07-08-2018 07:15:00 17 C 83 % 14.09 C
89 07-08-2018 07:20:00 17 C 83 % 14.09 C
90 07-08-2018 07:25:00 17 C 83 % 14.09 C
91 07-08-2018 07:30:00 17.1 C 83 % 14.19 C
92 07-08-2018 07:35:00 17.1 C 83 % 14.19 C
93 07-08-2018 07:40:00 17.2 C 83 % 14.29 C
94 07-08-2018 07:45:00 17.3 C 83 % 14.39 C
95 07-08-2018 07:50:00 17.3 C 83 % 14.39 C
96 07-08-2018 07:55:00 17.4 C 84 % 14.67 C
97 07-08-2018 08:00:00 17.5 C 83 % 14.58 C
98 07-08-2018 08:05:00 17.6 C 83 % 14.68 C
99 07-08-2018 08:10:00 17.7 C 83 % 14.78 C
100 07-08-2018 08:15:00 17.8 C 83 % 14.88 C
Sensor: Nr:Datum:Temp:Feuchte:Taupunkt:
Aussen-T/F 101 07-08-2018 08:20:00 17.9 C 83 % 14.97 C
102 07-08-2018 08:25:00 18.1 C 83 % 15.17 C
103 07-08-2018 08:30:00 18.2 C 82 % 15.08 C
104 07-08-2018 08:35:00 18.3 C 82 % 15.17 C
105 07-08-2018 08:40:00 18.3 C 82 % 15.17 C
106 07-08-2018 08:45:00 18.6 C 82 % 15.47 C
107 07-08-2018 08:50:00 18.7 C 83 % 15.75 C
108 07-08-2018 08:55:00 18.8 C 82 % 15.66 C
109 07-08-2018 09:00:00 19 C 81 % 15.67 C
110 07-08-2018 09:05:00 19.2 C 79 % 15.47 C
111 07-08-2018 09:10:00 19.5 C 80 % 15.96 C
112 07-08-2018 09:15:00 19.8 C 81 % 16.45 C
113 07-08-2018 09:20:00 20.1 C 80 % 16.54 C
114 07-08-2018 09:25:00 20.2 C 80 % 16.64 C
115 07-08-2018 09:30:00 20.4 C 76 % 16.03 C
116 07-08-2018 09:35:00 20.7 C 77 % 16.52 C
117 07-08-2018 09:40:00 21.1 C 74 % 16.29 C
118 07-08-2018 09:45:00 21.6 C 72 % 16.34 C
119 07-08-2018 09:50:00 22 C 71 % 16.5 C
120 07-08-2018 09:55:00 22.3 C 70 % 16.56 C
121 07-08-2018 10:00:00 22.6 C 68 % 16.39 C
122 07-08-2018 10:05:00 22.8 C 69 % 16.82 C
123 07-08-2018 10:10:00 23.1 C 68 % 16.87 C
124 07-08-2018 10:15:00 23.2 C 69 % 17.2 C
125 07-08-2018 10:20:00 23.2 C 69 % 17.2 C
Sensor: Nr:Datum:Temp:Feuchte:Taupunkt:
Aussen-T/F 126 07-08-2018 10:25:00 23.2 C 69 % 17.2 C
127 07-08-2018 10:30:00 23.3 C 69 % 17.29 C
128 07-08-2018 10:35:00 23.5 C 69 % 17.48 C
129 07-08-2018 10:40:00 23.7 C 68 % 17.44 C
130 07-08-2018 10:45:00 23.9 C 69 % 17.87 C
131 07-08-2018 10:50:00 24.2 C 67 % 17.68 C
132 07-08-2018 10:55:00 24.4 C 67 % 17.87 C
133 07-08-2018 11:00:00 24.7 C 67 % 18.16 C
134 07-08-2018 11:05:00 24.9 C 68 % 18.59 C
135 07-08-2018 11:10:00 25.1 C 66 % 18.3 C
136 07-08-2018 11:15:00 25.3 C 66 % 18.49 C
137 07-08-2018 11:20:00 25.6 C 65 % 18.53 C
138 07-08-2018 11:25:00 25.9 C 63 % 18.31 C
139 07-08-2018 11:30:00 26.3 C 62 % 18.44 C
140 07-08-2018 11:35:00 26.8 C 60 % 18.38 C
141 07-08-2018 11:40:00 27.3 C 58 % 18.31 C
142 07-08-2018 11:45:00 27.8 C 56 % 18.22 C
143 07-08-2018 11:50:00 28.2 C 56 % 18.59 C
144 07-08-2018 11:55:00 28.6 C 55 % 18.67 C
145 07-08-2018 12:00:00 28.9 C 52 % 18.05 C
146 07-08-2018 12:05:00 29.2 C 50 % 17.71 C
147 07-08-2018 12:10:00 29.7 C 50 % 18.16 C
148 07-08-2018 12:15:00 30.2 C 47 % 17.64 C
149 07-08-2018 12:20:00 30.7 C 46 % 17.75 C
150 07-08-2018 12:25:00 31.1 C 45 % 17.76 C
Sensor: Nr:Datum:Temp:Feuchte:Taupunkt:
Aussen-T/F 151 07-08-2018 12:30:00 31.4 C 43 % 17.31 C
152 07-08-2018 12:35:00 31.7 C 41 % 16.83 C
153 07-08-2018 12:40:00 31.8 C 40 % 16.53 C
154 07-08-2018 12:45:00 31.9 C 40 % 16.62 C
155 07-08-2018 12:50:00 32.1 C 39 % 16.4 C
156 07-08-2018 12:55:00 32.2 C 39 % 16.48 C
157 07-08-2018 13:00:00 32.2 C 40 % 16.88 C
158 07-08-2018 13:05:00 32.3 C 37 % 15.75 C
159 07-08-2018 13:10:00 32.6 C 37 % 16.01 C
160 07-08-2018 13:15:00 32.7 C 37 % 16.1 C
161 07-08-2018 13:20:00 32.9 C 36 % 15.85 C
162 07-08-2018 13:25:00 33 C 37 % 16.36 C
163 07-08-2018 13:30:00 33.1 C 41 % 18.08 C
164 07-08-2018 13:35:00 32.9 C 39 % 17.11 C
165 07-08-2018 13:40:00 32.8 C 39 % 17.02 C
166 07-08-2018 13:45:00 32.8 C 37 % 16.19 C
167 07-08-2018 13:50:00 33.2 C 35 % 15.67 C
168 07-08-2018 13:55:00 33.7 C 34 % 15.65 C
169 07-08-2018 14:00:00 34.1 C 33 % 15.54 C
170 07-08-2018 14:05:00 34.3 C 33 % 15.71 C
171 07-08-2018 14:10:00 34.3 C 33 % 15.71 C
172 07-08-2018 14:15:00 34.3 C 32 % 15.23 C
173 07-08-2018 14:20:00 34.6 C 32 % 15.49 C
174 07-08-2018 14:25:00 34.8 C 31 % 15.17 C
175 07-08-2018 14:30:00 34.9 C 31 % 15.25 C
Sensor: Nr:Datum:Temp:Feuchte:Taupunkt:
Aussen-T/F 176 07-08-2018 14:35:00 34.9 C 31 % 15.25 C
177 07-08-2018 14:40:00 34.8 C 30 % 14.66 C
178 07-08-2018 14:45:00 34.8 C 31 % 15.17 C
179 07-08-2018 14:50:00 34.9 C 31 % 15.25 C
180 07-08-2018 14:55:00 35 C 30 % 14.83 C
181 07-08-2018 15:00:00 35.2 C 30 % 15 C
182 07-08-2018 15:05:00 35.2 C 30 % 15 C
183 07-08-2018 15:10:00 35.2 C 30 % 15 C
184 07-08-2018 15:15:00 35.3 C 30 % 15.09 C
185 07-08-2018 15:20:00 35.5 C 29 % 14.73 C
186 07-08-2018 15:25:00 35.8 C 29 % 14.99 C
187 07-08-2018 15:30:00 35.8 C 30 % 15.52 C
188 07-08-2018 15:35:00 35.9 C 28 % 14.53 C
189 07-08-2018 15:40:00 36.1 C 29 % 15.24 C
190 07-08-2018 15:45:00 36.3 C 29 % 15.41 C
191 07-08-2018 15:50:00 36.6 C 29 % 15.67 C
192 07-08-2018 15:55:00 36.9 C 28 % 15.38 C
193 07-08-2018 16:00:00 37.2 C 27 % 15.07 C
194 07-08-2018 16:05:00 37.1 C 27 % 14.98 C
195 07-08-2018 16:10:00 37.2 C 27 % 15.07 C
196 07-08-2018 16:15:00 37.3 C 26 % 14.57 C
197 07-08-2018 16:20:00 37.4 C 26 % 14.65 C
198 07-08-2018 16:25:00 37.1 C 27 % 14.98 C
199 07-08-2018 16:30:00 37 C 27 % 14.9 C
200 07-08-2018 16:35:00 37.2 C 28 % 15.63 C
Sensor: Nr:Datum:Temp:Feuchte:Taupunkt:
Aussen-T/F 201 07-08-2018 16:40:00 37.7 C 27 % 15.49 C
202 07-08-2018 16:45:00 38 C 27 % 15.74 C
203 07-08-2018 16:50:00 38.1 C 28 % 16.4 C
204 07-08-2018 16:55:00 37.8 C 27 % 15.57 C
205 07-08-2018 17:00:00 37.6 C 26 % 14.82 C
206 07-08-2018 17:05:00 37.6 C 26 % 14.82 C
207 07-08-2018 17:10:00 37.9 C 26 % 15.07 C
208 07-08-2018 17:15:00 38.1 C 25 % 14.63 C
209 07-08-2018 17:20:00 37.9 C 26 % 15.07 C
210 07-08-2018 17:25:00 37.7 C 27 % 15.49 C
211 07-08-2018 17:30:00 37.4 C 28 % 15.8 C
212 07-08-2018 17:35:00 37.5 C 27 % 15.32 C
213 07-08-2018 17:40:00 37.8 C 26 % 14.99 C
214 07-08-2018 17:45:00 37.9 C 26 % 15.07 C
215 07-08-2018 17:50:00 37.8 C 26 % 14.99 C
216 07-08-2018 17:55:00 38.2 C 25 % 14.71 C
217 07-08-2018 18:00:00 38.3 C 25 % 14.8 C
218 07-08-2018 18:05:00 38.3 C 23 % 13.51 C
219 07-08-2018 18:10:00 38.4 C 24 % 14.25 C
220 07-08-2018 18:15:00 38.4 C 23 % 13.59 C
221 07-08-2018 18:20:00 38.4 C 23 % 13.59 C
222 07-08-2018 18:25:00 38.4 C 24 % 14.25 C
223 07-08-2018 18:30:00 38.4 C 23 % 13.59 C
224 07-08-2018 18:35:00 38.3 C 23 % 13.51 C
225 07-08-2018 18:40:00 38.3 C 23 % 13.51 C
Sensor: Nr:Datum:Temp:Feuchte:Taupunkt:
Aussen-T/F 226 07-08-2018 18:45:00 38.2 C 23 % 13.43 C
227 07-08-2018 18:50:00 38 C 24 % 13.92 C
228 07-08-2018 18:55:00 37.8 C 23 % 13.1 C
229 07-08-2018 19:00:00 37.7 C 25 % 14.29 C
230 07-08-2018 19:05:00 37.6 C 23 % 12.93 C
231 07-08-2018 19:10:00 37.6 C 24 % 13.58 C
232 07-08-2018 19:15:00 37.6 C 24 % 13.58 C
233 07-08-2018 19:20:00 37.5 C 24 % 13.5 C
234 07-08-2018 19:25:00 37.2 C 24 % 13.25 C
235 07-08-2018 19:30:00 36.9 C 28 % 15.38 C
236 07-08-2018 19:35:00 36.7 C 27 % 14.64 C
237 07-08-2018 19:40:00 36.4 C 29 % 15.5 C
238 07-08-2018 19:45:00 36.1 C 26 % 13.56 C
239 07-08-2018 19:50:00 35.7 C 31 % 15.94 C
240 07-08-2018 19:55:00 35.4 C 32 % 16.18 C
241 07-08-2018 20:00:00 35 C 33 % 16.32 C
242 07-08-2018 20:05:00 34.5 C 35 % 16.81 C
243 07-08-2018 20:10:00 34 C 37 % 17.25 C
244 07-08-2018 20:15:00 33.6 C 39 % 17.73 C
245 07-08-2018 20:20:00 33.3 C 40 % 17.86 C
246 07-08-2018 20:25:00 33.2 C 40 % 17.77 C
247 07-08-2018 20:30:00 33 C 41 % 17.99 C
248 07-08-2018 20:35:00 32.9 C 41 % 17.9 C
249 07-08-2018 20:40:00 32.8 C 42 % 18.19 C
250 07-08-2018 20:45:00 32.7 C 43 % 18.48 C
Sensor: Nr:Datum:Temp:Feuchte:Taupunkt:
Aussen-T/F 251 07-08-2018 20:50:00 32.4 C 43 % 18.21 C
252 07-08-2018 20:55:00 32.2 C 44 % 18.39 C
253 07-08-2018 21:00:00 32.1 C 45 % 18.66 C
254 07-08-2018 21:05:00 31.8 C 45 % 18.39 C
255 07-08-2018 21:10:00 31.6 C 46 % 18.56 C
256 07-08-2018 21:15:00 31.3 C 48 % 18.97 C
257 07-08-2018 21:20:00 31 C 48 % 18.7 C
258 07-08-2018 21:25:00 30.6 C 48 % 18.33 C
259 07-08-2018 21:30:00 30.3 C 48 % 18.06 C
260 07-08-2018 21:35:00 30.1 C 49 % 18.21 C
261 07-08-2018 21:40:00 29.8 C 50 % 18.25 C
262 07-08-2018 21:45:00 29.6 C 49 % 17.75 C
263 07-08-2018 21:50:00 29.3 C 50 % 17.8 C
264 07-08-2018 21:55:00 29.2 C 52 % 18.33 C
265 07-08-2018 22:00:00 28.9 C 52 % 18.05 C
266 07-08-2018 22:05:00 28.8 C 53 % 18.26 C
267 07-08-2018 22:10:00 28.6 C 53 % 18.08 C
268 07-08-2018 22:15:00 28.5 C 54 % 18.29 C
269 07-08-2018 22:20:00 28.4 C 55 % 18.49 C
270 07-08-2018 22:25:00 28.3 C 54 % 18.1 C
271 07-08-2018 22:30:00 28.3 C 54 % 18.1 C
272 07-08-2018 22:35:00 28.3 C 54 % 18.1 C
273 07-08-2018 22:40:00 28.3 C 54 % 18.1 C
274 07-08-2018 22:45:00 28.2 C 55 % 18.3 C
275 07-08-2018 22:50:00 28.2 C 54 % 18.01 C
Sensor: Nr:Datum:Temp:Feuchte:Taupunkt:
Aussen-T/F 276 07-08-2018 22:55:00 28.2 C 54 % 18.01 C
277 07-08-2018 23:00:00 28.1 C 55 % 18.21 C
278 07-08-2018 23:05:00 28.1 C 55 % 18.21 C
279 07-08-2018 23:10:00 28.1 C 55 % 18.21 C
280 07-08-2018 23:15:00 28.1 C 55 % 18.21 C
281 07-08-2018 23:20:00 28.1 C 55 % 18.21 C
282 07-08-2018 23:25:00 28 C 56 % 18.4 C
283 07-08-2018 23:30:00 27.9 C 55 % 18.02 C
284 07-08-2018 23:35:00 27.8 C 56 % 18.22 C
285 07-08-2018 23:40:00 27.7 C 56 % 18.12 C
286 07-08-2018 23:45:00 27.7 C 57 % 18.41 C
287 07-08-2018 23:50:00 27.6 C 57 % 18.31 C
288 07-08-2018 23:55:00 27.5 C 57 % 18.22 C

Legende:
   Min
   Max


Maximal/Minimal-Werte vom 07.08.2018 - 07.08.2018

Sensor Min Max Avg
Temp
(Aussen-T/F)
16.5 °C
07-08-2018  06:00:00
38.4 °C
07-08-2018  18:10:00
26.74 °C
Feuchte
(Aussen-T/F)
23 %
07-08-2018  18:05:00
84 %
07-08-2018  07:55:00
55.51 %
Taupunkt
(Aussen-T/F)
12.93 C
07-08-2018  19:05:00
18.97 C
07-08-2018  21:15:00
15.52 C

Die Daten stammen von einer Davis Vantage Pro 2 Wetter-Station und werden unter Linux mit der Software wview2wettercgi und aufbereitet. Alle Angaben erfolgen ohne Gewähr für ihre Vollständigkeit oder Richtigkeit.
Kontakt: Rainer Krienke krienke@uni-koblenz.de . Meine Webseiten an der Uni Koblenz oder privat.
Version: $Revision: 0.78 $